Aviation Digital Data Service (ADDS)

Output produced by METARs form (1349 UTC 10 July 2020)
found at http://www.aviationweather.gov/metar/data/
 
METAR text: RJBD 101000Z 16013KT 7000 FEW001 SCT002 BKN003 26/25 Q1010
Conditions at: RJBD (NANKISHIRAHAMA A, JP) observed 1000 UTC 10 July 2020
Temperature: 26.0°C (79°F)
Dewpoint: 25.0°C (77°F) [RH = 94%]
Pressure (altimeter): 29.82 inches Hg (1010.0 mb)
Winds: from the SSE (160 degrees) at 15 MPH (13 knots; 6.7 m/s)
Visibility: 4 miles ( 7 km)
Ceiling: 300 feet AGL
Clouds: few clouds at 100 feet AGL
scattered clouds at 200 feet AGL
broken clouds at 300 feet AGL
Weather: no significant weather observed at this time

METAR text: RJBD 100900Z 15014KT 5000 BR FEW001 SCT002 BKN003 26/25 Q1010
Conditions at: RJBD (NANKISHIRAHAMA A, JP) observed 0900 UTC 10 July 2020
Temperature: 26.0°C (79°F)
Dewpoint: 25.0°C (77°F) [RH = 94%]
Pressure (altimeter): 29.82 inches Hg (1010.0 mb)
Winds: from the SSE (150 degrees) at 16 MPH (14 knots; 7.2 m/s)
Visibility: 3 miles ( 5 km)
Ceiling: 300 feet AGL
Clouds: few clouds at 100 feet AGL
scattered clouds at 200 feet AGL
broken clouds at 300 feet AGL
Weather: BR  (mist)

METAR text: RJBD 100820Z 15014KT 7000 BCFG FEW001 SCT002 BKN003 26/25 Q1010 RMK 1ST001 4ST002 7ST003 A2983 FG ALL QUAD
Conditions at: RJBD (NANKISHIRAHAMA A, JP) observed 0820 UTC 10 July 2020
Temperature: 26.0°C (79°F)
Dewpoint: 25.0°C (77°F) [RH = 94%]
Pressure (altimeter): 29.82 inches Hg (1010.0 mb)
Winds: from the SSE (150 degrees) at 16 MPH (14 knots; 7.2 m/s)
Visibility: 4 miles ( 7 km)
Ceiling: 300 feet AGL
Clouds: few clouds at 100 feet AGL
scattered clouds at 200 feet AGL
broken clouds at 300 feet AGL
Weather: BCFG  (patches of fog)

METAR text: RJBD 100800Z 15015KT 7000 BCFG FEW001 SCT002 BKN004 26/25 Q1010
Conditions at: RJBD (NANKISHIRAHAMA A, JP) observed 0800 UTC 10 July 2020
Temperature: 26.0°C (79°F)
Dewpoint: 25.0°C (77°F) [RH = 94%]
Pressure (altimeter): 29.82 inches Hg (1010.0 mb)
Winds: from the SSE (150 degrees) at 17 MPH (15 knots; 7.7 m/s)
Visibility: 4 miles ( 7 km)
Ceiling: 400 feet AGL
Clouds: few clouds at 100 feet AGL
scattered clouds at 200 feet AGL
broken clouds at 400 feet AGL
Weather: BCFG  (patches of fog)

METAR text: RJBD 100700Z 15014KT 9000 FEW002 SCT003 BKN006 26/25 Q1010
Conditions at: RJBD (NANKISHIRAHAMA A, JP) observed 0700 UTC 10 July 2020
Temperature: 26.0°C (79°F)
Dewpoint: 25.0°C (77°F) [RH = 94%]
Pressure (altimeter): 29.82 inches Hg (1010.0 mb)
Winds: from the SSE (150 degrees) at 16 MPH (14 knots; 7.2 m/s)
Visibility: 6 miles ( 9 km)
Ceiling: 600 feet AGL
Clouds: few clouds at 200 feet AGL
scattered clouds at 300 feet AGL
broken clouds at 600 feet AGL
Weather: no significant weather observed at this time

METAR text: RJBD 100634Z 15014KT 7000 BCFG FEW001 SCT003 BKN006 27/25 Q1010 RMK 1ST001 4ST003 6ST006 A2984 FG ALL QUAD
Conditions at: RJBD (NANKISHIRAHAMA A, JP) observed 0634 UTC 10 July 2020
Temperature: 27.0°C (81°F)
Dewpoint: 25.0°C (77°F) [RH = 89%]
Pressure (altimeter): 29.82 inches Hg (1010.0 mb)
Winds: from the SSE (150 degrees) at 16 MPH (14 knots; 7.2 m/s)
Visibility: 4 miles ( 7 km)
Ceiling: 600 feet AGL
Clouds: few clouds at 100 feet AGL
scattered clouds at 300 feet AGL
broken clouds at 600 feet AGL
Weather: BCFG  (patches of fog)

METAR text: RJBD 100620Z 15015KT 5000 VCSH BR BCFG FEW000 BKN003 BKN006 26/25 Q1010 RMK 1ST000 5ST003 6ST006 A2984 FG ALL QUAD
Conditions at: RJBD (NANKISHIRAHAMA A, JP) observed 0620 UTC 10 July 2020
Temperature: 26.0°C (79°F)
Dewpoint: 25.0°C (77°F) [RH = 94%]
Pressure (altimeter): 29.82 inches Hg (1010.0 mb)
Winds: from the SSE (150 degrees) at 17 MPH (15 knots; 7.7 m/s)
Visibility: 3 miles ( 5 km)
Ceiling: 300 feet AGL
Clouds: few clouds at 0 feet AGL
broken clouds at 300 feet AGL
broken clouds at 600 feet AGL
Weather: VCSH BR BCFG  (showers in vicinity, mist, patches of fog)

METAR text: RJBD 100600Z 15016KT 3000 BR BCFG FEW000 BKN001 BKN002 26/25 Q1010
Conditions at: RJBD (NANKISHIRAHAMA A, JP) observed 0600 UTC 10 July 2020
Temperature: 26.0°C (79°F)
Dewpoint: 25.0°C (77°F) [RH = 94%]
Pressure (altimeter): 29.82 inches Hg (1010.0 mb)
Winds: from the SSE (150 degrees) at 18 MPH (16 knots; 8.2 m/s)
Visibility: 1.86 miles (2.99 km)
Ceiling: 100 feet AGL
Clouds: few clouds at 0 feet AGL
broken clouds at 100 feet AGL
broken clouds at 200 feet AGL
Weather: BR BCFG  (mist, patches of fog)

METAR text: RJBD 100500Z 15016KT 4500 VCSH BR FEW001 SCT002 BKN003 FEW025CB 26/25 Q1010
Conditions at: RJBD (NANKISHIRAHAMA A, JP) observed 0500 UTC 10 July 2020
Temperature: 26.0°C (79°F)
Dewpoint: 25.0°C (77°F) [RH = 94%]
Pressure (altimeter): 29.82 inches Hg (1010.0 mb)
Winds: from the SSE (150 degrees) at 18 MPH (16 knots; 8.2 m/s)
Visibility: 2.80 miles (4.51 km)
Ceiling: 300 feet AGL
Clouds: few clouds at 100 feet AGL
scattered clouds at 200 feet AGL
broken clouds at 300 feet AGL
few clouds at 2500 feet AGL
Weather: VCSH BR  (showers in vicinity, mist)

METAR text: RJBD 100425Z 15016KT 6000 VCSH FEW001 BKN003 BKN007 FEW025CB 26/25 Q1010 RMK 1ST001 5ST003 6ST007 1CB025 A2985 CB 10KM NW MOV NE
Conditions at: RJBD (NANKISHIRAHAMA A, JP) observed 0425 UTC 10 July 2020
Temperature: 26.0°C (79°F)
Dewpoint: 25.0°C (77°F) [RH = 94%]
Pressure (altimeter): 29.82 inches Hg (1010.0 mb)
Winds: from the SSE (150 degrees) at 18 MPH (16 knots; 8.2 m/s)
Visibility: 4 miles ( 6 km)
Ceiling: 300 feet AGL
Clouds: few clouds at 100 feet AGL
broken clouds at 300 feet AGL
broken clouds at 700 feet AGL
few clouds at 2500 feet AGL
Weather: VCSH  (showers in vicinity)

METAR text: RJBD 100400Z 15012KT 9000 -SHRA FEW005 BKN007 BKN015 FEW025CB 26/24 Q1010
Conditions at: RJBD (NANKISHIRAHAMA A, JP) observed 0400 UTC 10 July 2020
Temperature: 26.0°C (79°F)
Dewpoint: 24.0°C (75°F) [RH = 89%]
Pressure (altimeter): 29.82 inches Hg (1010.0 mb)
Winds: from the SSE (150 degrees) at 14 MPH (12 knots; 6.2 m/s)
Visibility: 6 miles ( 9 km)
Ceiling: 700 feet AGL
Clouds: few clouds at 500 feet AGL
broken clouds at 700 feet AGL
broken clouds at 1500 feet AGL
few clouds at 2500 feet AGL
Weather: -SHRA  (light rain showers)

METAR text: RJBD 100300Z 15014KT 9999 FEW009 SCT020 BKN045 28/24 Q1011
Conditions at: RJBD (NANKISHIRAHAMA A, JP) observed 0300 UTC 10 July 2020
Temperature: 28.0°C (82°F)
Dewpoint: 24.0°C (75°F) [RH = 79%]
Pressure (altimeter): 29.85 inches Hg (1011.0 mb)
Winds: from the SSE (150 degrees) at 16 MPH (14 knots; 7.2 m/s)
Visibility: 6 or more miles (10+ km)
Ceiling: 4500 feet AGL
Clouds: few clouds at 900 feet AGL
scattered clouds at 2000 feet AGL
broken clouds at 4500 feet AGL
Weather: no significant weather observed at this time

METAR text: RJBD 100200Z 15014KT 9999 FEW009 SCT020 BKN180 27/25 Q1011
Conditions at: RJBD (NANKISHIRAHAMA A, JP) observed 0200 UTC 10 July 2020
Temperature: 27.0°C (81°F)
Dewpoint: 25.0°C (77°F) [RH = 89%]
Pressure (altimeter): 29.85 inches Hg (1011.0 mb)
Winds: from the SSE (150 degrees) at 16 MPH (14 knots; 7.2 m/s)
Visibility: 6 or more miles (10+ km)
Ceiling: 18000 feet AGL
Clouds: few clouds at 900 feet AGL
scattered clouds at 2000 feet AGL
broken clouds at 18000 feet AGL
Weather: no significant weather observed at this time

METAR text: RJBD 100100Z 15010KT 9999 FEW020 SCT035 BKN130 27/25 Q1011
Conditions at: RJBD (NANKISHIRAHAMA A, JP) observed 0100 UTC 10 July 2020
Temperature: 27.0°C (81°F)
Dewpoint: 25.0°C (77°F) [RH = 89%]
Pressure (altimeter): 29.85 inches Hg (1011.0 mb)
Winds: from the SSE (150 degrees) at 12 MPH (10 knots; 5.1 m/s)
Visibility: 6 or more miles (10+ km)
Ceiling: 13000 feet AGL
Clouds: few clouds at 2000 feet AGL
scattered clouds at 3500 feet AGL
broken clouds at 13000 feet AGL
Weather: no significant weather observed at this time

METAR text: RJBD 100000Z 14008KT 9999 FEW020 SCT035 BKN150 26/23 Q1011
Conditions at: RJBD (NANKISHIRAHAMA A, JP) observed 0000 UTC 10 July 2020
Temperature: 26.0°C (79°F)
Dewpoint: 23.0°C (73°F) [RH = 84%]
Pressure (altimeter): 29.85 inches Hg (1011.0 mb)
Winds: from the SE (140 degrees) at 9 MPH (8 knots; 4.1 m/s)
Visibility: 6 or more miles (10+ km)
Ceiling: 15000 feet AGL
Clouds: few clouds at 2000 feet AGL
scattered clouds at 3500 feet AGL
broken clouds at 15000 feet AGL
Weather: no significant weather observed at this time

METAR text: RJBD 092300Z 11003KT 9999 VCSH FEW009 SCT015 BKN035 25/23 Q1011
Conditions at: RJBD (NANKISHIRAHAMA A, JP) observed 2300 UTC 09 July 2020
Temperature: 25.0°C (77°F)
Dewpoint: 23.0°C (73°F) [RH = 89%]
Pressure (altimeter): 29.85 inches Hg (1011.0 mb)
Winds: from the ESE (110 degrees) at 3 MPH (3 knots; 1.5 m/s)
Visibility: 6 or more miles (10+ km)
Ceiling: 3500 feet AGL
Clouds: few clouds at 900 feet AGL
scattered clouds at 1500 feet AGL
broken clouds at 3500 feet AGL
Weather: VCSH  (showers in vicinity)

METAR text: RJBD 092240Z 13003KT 9999 VCSH FEW009 SCT015 BKN040 25/23 Q1011 RMK 1ST009 3CU015 6CU040 A2987
Conditions at: RJBD (NANKISHIRAHAMA A, JP) observed 2240 UTC 09 July 2020
Temperature: 25.0°C (77°F)
Dewpoint: 23.0°C (73°F) [RH = 89%]
Pressure (altimeter): 29.85 inches Hg (1011.0 mb)
Winds: from the SE (130 degrees) at 3 MPH (3 knots; 1.5 m/s)
Visibility: 6 or more miles (10+ km)
Ceiling: 4000 feet AGL
Clouds: few clouds at 900 feet AGL
scattered clouds at 1500 feet AGL
broken clouds at 4000 feet AGL
Weather: VCSH  (showers in vicinity)

METAR text: RJBD 091000Z 15007KT 9999 VCSH FEW001 BKN005 BKN012 23/23 Q1011
Conditions at: RJBD (NANKISHIRAHAMA A, JP) observed 1000 UTC 09 July 2020
Temperature: 23.0°C (73°F)
Dewpoint: 23.0°C (73°F) [RH = 100%]
Pressure (altimeter): 29.85 inches Hg (1011.0 mb)
Winds: from the SSE (150 degrees) at 8 MPH (7 knots; 3.6 m/s)
Visibility: 6 or more miles (10+ km)
Ceiling: 500 feet AGL
Clouds: few clouds at 100 feet AGL
broken clouds at 500 feet AGL
broken clouds at 1200 feet AGL
Weather: VCSH  (showers in vicinity)

METAR text: RJBD 090913Z 14006KT 5000 -SHRA BR FEW001 SCT002 BKN005 23/23 Q1010 RMK 1ST001 4ST002 7ST005 A2984
Conditions at: RJBD (NANKISHIRAHAMA A, JP) observed 0913 UTC 09 July 2020
Temperature: 23.0°C (73°F)
Dewpoint: 23.0°C (73°F) [RH = 100%]
Pressure (altimeter): 29.82 inches Hg (1010.0 mb)
Winds: from the SE (140 degrees) at 7 MPH (6 knots; 3.1 m/s)
Visibility: 3 miles ( 5 km)
Ceiling: 500 feet AGL
Clouds: few clouds at 100 feet AGL
scattered clouds at 200 feet AGL
broken clouds at 500 feet AGL
Weather: -SHRA BR  (light rain showers, mist)

METAR text: RJBD 090900Z 14006KT 0900 -SHRA FG FEW000 SCT002 BKN003 23/23 Q1010
Conditions at: RJBD (NANKISHIRAHAMA A, JP) observed 0900 UTC 09 July 2020
Temperature: 23.0°C (73°F)
Dewpoint: 23.0°C (73°F) [RH = 100%]
Pressure (altimeter): 29.82 inches Hg (1010.0 mb)
Winds: from the SE (140 degrees) at 7 MPH (6 knots; 3.1 m/s)
Visibility: 0.56 miles (0.90 km)
Ceiling: 300 feet AGL
Clouds: few clouds at 0 feet AGL
scattered clouds at 200 feet AGL
broken clouds at 300 feet AGL
Weather: -SHRA FG  (light rain showers, fog)

METAR text: RJBD 090837Z 17005KT 110V230 4000 -SHRA BR BCFG FEW001 BKN006 BKN010 23/23 Q1010 RMK 1ST001 5ST006 7ST010 A2983 2000SE-SW FG ALL QUAD
Conditions at: RJBD (NANKISHIRAHAMA A, JP) observed 0837 UTC 09 July 2020
Temperature: 23.0°C (73°F)
Dewpoint: 23.0°C (73°F) [RH = 100%]
Pressure (altimeter): 29.82 inches Hg (1010.0 mb)
Winds: from the S (170 degrees) at 6 MPH (5 knots; 2.6 m/s)
Visibility: 2.49 miles (4.01 km)
Ceiling: 600 feet AGL
Clouds: few clouds at 100 feet AGL
broken clouds at 600 feet AGL
broken clouds at 1000 feet AGL
Weather: -SHRA BR BCFG  (light rain showers, mist, patches of fog)

METAR text: RJBD 090833Z 16006KT 110V230 4000 -SHRA BR BCFG FEW000 BKN003 BKN012 23/23 Q1010 RMK 1ST000 5ST003 7CU012 A2983 2000SE-SW FG ALL QUAD
Conditions at: RJBD (NANKISHIRAHAMA A, JP) observed 0833 UTC 09 July 2020
Temperature: 23.0°C (73°F)
Dewpoint: 23.0°C (73°F) [RH = 100%]
Pressure (altimeter): 29.82 inches Hg (1010.0 mb)
Winds: from the SSE (160 degrees) at 7 MPH (6 knots; 3.1 m/s)
Visibility: 2.49 miles (4.01 km)
Ceiling: 300 feet AGL
Clouds: few clouds at 0 feet AGL
broken clouds at 300 feet AGL
broken clouds at 1200 feet AGL
Weather: -SHRA BR BCFG  (light rain showers, mist, patches of fog)

METAR text: RJBD 090827Z 16006KT 120V190 1500 -SHRA BR BCFG FEW000 SCT001 BKN003 23/22 Q1010 RMK 1ST000 4ST001 6ST003 A2982 FG ALL QUAD
Conditions at: RJBD (NANKISHIRAHAMA A, JP) observed 0827 UTC 09 July 2020
Temperature: 23.0°C (73°F)
Dewpoint: 22.0°C (72°F) [RH = 94%]
Pressure (altimeter): 29.82 inches Hg (1010.0 mb)
Winds: from the SSE (160 degrees) at 7 MPH (6 knots; 3.1 m/s)
Visibility: 0.93 miles (1.50 km)
Ceiling: 300 feet AGL
Clouds: few clouds at 0 feet AGL
scattered clouds at 100 feet AGL
broken clouds at 300 feet AGL
Weather: -SHRA BR BCFG  (light rain showers, mist, patches of fog)

METAR text: RJBD 090817Z 16008KT 130V200 0800 -SHRA FG FEW000 SCT001 BKN003 FEW025CB 23/23 Q1010 RMK 1ST000 4ST001 6ST003 1CB025 A2982 CB E
Conditions at: RJBD (NANKISHIRAHAMA A, JP) observed 0817 UTC 09 July 2020
Temperature: 23.0°C (73°F)
Dewpoint: 23.0°C (73°F) [RH = 100%]
Pressure (altimeter): 29.82 inches Hg (1010.0 mb)
Winds: from the SSE (160 degrees) at 9 MPH (8 knots; 4.1 m/s)
Visibility: 0.50 miles (0.80 km)
Ceiling: 300 feet AGL
Clouds: few clouds at 0 feet AGL
scattered clouds at 100 feet AGL
broken clouds at 300 feet AGL
few clouds at 2500 feet AGL
Weather: -SHRA FG  (light rain showers, fog)

METAR text: RJBD 090804Z 17006KT 140V230 1000 -SHRA BR BCFG FEW000 SCT002 BKN003 FEW025CB 23/23 Q1010 RMK 1ST000 4ST002 6ST003 1CB025 A2982 CB 20KM SE MOV E FG ALL QUAD
Conditions at: RJBD (NANKISHIRAHAMA A, JP) observed 0804 UTC 09 July 2020
Temperature: 23.0°C (73°F)
Dewpoint: 23.0°C (73°F) [RH = 100%]
Pressure (altimeter): 29.82 inches Hg (1010.0 mb)
Winds: from the S (170 degrees) at 7 MPH (6 knots; 3.1 m/s)
Visibility: 0.62 miles (1.00 km)
Ceiling: 300 feet AGL
Clouds: few clouds at 0 feet AGL
scattered clouds at 200 feet AGL
broken clouds at 300 feet AGL
few clouds at 2500 feet AGL
Weather: -SHRA BR BCFG  (light rain showers, mist, patches of fog)

METAR text: RJBD 090800Z 17005KT 140V230 2500 -SHRA BR BCFG FEW002 BKN004 BKN007 FEW025CB 23/23 Q1010
Conditions at: RJBD (NANKISHIRAHAMA A, JP) observed 0800 UTC 09 July 2020
Temperature: 23.0°C (73°F)
Dewpoint: 23.0°C (73°F) [RH = 100%]
Pressure (altimeter): 29.82 inches Hg (1010.0 mb)
Winds: from the S (170 degrees) at 6 MPH (5 knots; 2.6 m/s)
Visibility: 1.55 miles (2.49 km)
Ceiling: 400 feet AGL
Clouds: few clouds at 200 feet AGL
broken clouds at 400 feet AGL
broken clouds at 700 feet AGL
few clouds at 2500 feet AGL
Weather: -SHRA BR BCFG  (light rain showers, mist, patches of fog)

METAR text: RJBD 090735Z 16003KT 110V220 4000 SHRA BR FEW003 SCT006 BKN015 FEW025CB 23/23 Q1009 RMK 1ST003 3ST006 5CU015 1CB025 A2982 CB 20KM S-SW MOV NE
Conditions at: RJBD (NANKISHIRAHAMA A, JP) observed 0735 UTC 09 July 2020
Temperature: 23.0°C (73°F)
Dewpoint: 23.0°C (73°F) [RH = 100%]
Pressure (altimeter): 29.79 inches Hg (1009.0 mb)
Winds: from the SSE (160 degrees) at 3 MPH (3 knots; 1.5 m/s)
Visibility: 2.49 miles (4.01 km)
Ceiling: 1500 feet AGL
Clouds: few clouds at 300 feet AGL
scattered clouds at 600 feet AGL
broken clouds at 1500 feet AGL
few clouds at 2500 feet AGL
Weather: SHRA BR  (rain showers, mist)

METAR text: RJBD 090704Z 13006KT 100V200 2000 +SHRA BR FEW006 BKN020 FEW025CB BKN035 23/22 Q1009 RMK 1ST006 5CU020 1CB025 6CU035 A2982 CB OHD MOV E AND SW
Conditions at: RJBD (NANKISHIRAHAMA A, JP) observed 0704 UTC 09 July 2020
Temperature: 23.0°C (73°F)
Dewpoint: 22.0°C (72°F) [RH = 94%]
Pressure (altimeter): 29.79 inches Hg (1009.0 mb)
Winds: from the SE (130 degrees) at 7 MPH (6 knots; 3.1 m/s)
Visibility: 1.24 miles (2.00 km)
Ceiling: 2000 feet AGL
Clouds: few clouds at 600 feet AGL
broken clouds at 2000 feet AGL
few clouds at 2500 feet AGL
broken clouds at 3500 feet AGL
Weather: +SHRA BR  (heavy rain showers, mist)

METAR text: RJBD 090700Z 13006KT 3200 SHRA BR FEW006 BKN020 FEW025CB BKN035 23/22 Q1009
Conditions at: RJBD (NANKISHIRAHAMA A, JP) observed 0700 UTC 09 July 2020
Temperature: 23.0°C (73°F)
Dewpoint: 22.0°C (72°F) [RH = 94%]
Pressure (altimeter): 29.79 inches Hg (1009.0 mb)
Winds: from the SE (130 degrees) at 7 MPH (6 knots; 3.1 m/s)
Visibility: 1.99 miles (3.20 km)
Ceiling: 2000 feet AGL
Clouds: few clouds at 600 feet AGL
broken clouds at 2000 feet AGL
few clouds at 2500 feet AGL
broken clouds at 3500 feet AGL
Weather: SHRA BR  (rain showers, mist)

METAR text: RJBD 090600Z 10005KT 9999 VCSH FEW006 SCT020 FEW025CB BKN050 23/22 Q1009
Conditions at: RJBD (NANKISHIRAHAMA A, JP) observed 0600 UTC 09 July 2020
Temperature: 23.0°C (73°F)
Dewpoint: 22.0°C (72°F) [RH = 94%]
Pressure (altimeter): 29.79 inches Hg (1009.0 mb)
Winds: from the E (100 degrees) at 6 MPH (5 knots; 2.6 m/s)
Visibility: 6 or more miles (10+ km)
Ceiling: 5000 feet AGL
Clouds: few clouds at 600 feet AGL
scattered clouds at 2000 feet AGL
few clouds at 2500 feet AGL
broken clouds at 5000 feet AGL
Weather: VCSH  (showers in vicinity)

METAR text: RJBD 090500Z 16005KT 120V180 9999 -SHRA FEW007 SCT020 FEW025CB BKN060 22/22 Q1009
Conditions at: RJBD (NANKISHIRAHAMA A, JP) observed 0500 UTC 09 July 2020
Temperature: 22.0°C (72°F)
Dewpoint: 22.0°C (72°F) [RH = 100%]
Pressure (altimeter): 29.79 inches Hg (1009.0 mb)
Winds: from the SSE (160 degrees) at 6 MPH (5 knots; 2.6 m/s)
Visibility: 6 or more miles (10+ km)
Ceiling: 6000 feet AGL
Clouds: few clouds at 700 feet AGL
scattered clouds at 2000 feet AGL
few clouds at 2500 feet AGL
broken clouds at 6000 feet AGL
Weather: -SHRA  (light rain showers)

METAR text: RJBD 090400Z 15008KT 9999 -SHRA PRFG FEW003 SCT010 FEW025CB BKN060 23/23 Q1009
Conditions at: RJBD (NANKISHIRAHAMA A, JP) observed 0400 UTC 09 July 2020
Temperature: 23.0°C (73°F)
Dewpoint: 23.0°C (73°F) [RH = 100%]
Pressure (altimeter): 29.79 inches Hg (1009.0 mb)
Winds: from the SSE (150 degrees) at 9 MPH (8 knots; 4.1 m/s)
Visibility: 6 or more miles (10+ km)
Ceiling: 6000 feet AGL
Clouds: few clouds at 300 feet AGL
scattered clouds at 1000 feet AGL
few clouds at 2500 feet AGL
broken clouds at 6000 feet AGL
Weather: -SHRA PRFG  (light rain showers, partial fog)

METAR text: RJBD 090331Z 14004KT 9000 -SHRA FEW003 SCT008 BKN020 FEW025CB 23/23 Q1009 RMK 1ST003 3ST008 5CU020 1CB025 A2980 CB 25KM NE-E MOV NE
Conditions at: RJBD (NANKISHIRAHAMA A, JP) observed 0331 UTC 09 July 2020
Temperature: 23.0°C (73°F)
Dewpoint: 23.0°C (73°F) [RH = 100%]
Pressure (altimeter): 29.79 inches Hg (1009.0 mb)
Winds: from the SE (140 degrees) at 5 MPH (4 knots; 2.1 m/s)
Visibility: 6 miles ( 9 km)
Ceiling: 2000 feet AGL
Clouds: few clouds at 300 feet AGL
scattered clouds at 800 feet AGL
broken clouds at 2000 feet AGL
few clouds at 2500 feet AGL
Weather: -SHRA  (light rain showers)

METAR text: RJBD 090300Z 05004KT 350V120 1000 +SHRA BR FEW001 SCT003 BKN008 FEW020CB 23/23 Q1009
Conditions at: RJBD (NANKISHIRAHAMA A, JP) observed 0300 UTC 09 July 2020
Temperature: 23.0°C (73°F)
Dewpoint: 23.0°C (73°F) [RH = 100%]
Pressure (altimeter): 29.79 inches Hg (1009.0 mb)
Winds: from the NE (50 degrees) at 5 MPH (4 knots; 2.1 m/s)
Visibility: 0.62 miles (1.00 km)
Ceiling: 800 feet AGL
Clouds: few clouds at 100 feet AGL
scattered clouds at 300 feet AGL
broken clouds at 800 feet AGL
few clouds at 2000 feet AGL
Weather: +SHRA BR  (heavy rain showers, mist)

METAR text: RJBD 090226Z VRB02KT 3500 TSRA BR FEW006 BKN010 FEW025CB BKN035 24/23 Q1009 RMK 1ST006 5CU010 2CB025 6CU035 A2980 FBL TS 10KM SW MOV NE CB 10KM SW-N MOV NE
Conditions at: RJBD (NANKISHIRAHAMA A, JP) observed 0226 UTC 09 July 2020
Temperature: 24.0°C (75°F)
Dewpoint: 23.0°C (73°F) [RH = 94%]
Pressure (altimeter): 29.79 inches Hg (1009.0 mb)
Winds: variable direction winds at 2 MPH (2 knots; 1.0 m/s)
Visibility: 2.17 miles (3.49 km)
Ceiling: 1000 feet AGL
Clouds: few clouds at 600 feet AGL
broken clouds at 1000 feet AGL
few clouds at 2500 feet AGL
broken clouds at 3500 feet AGL
Weather: TSRA BR  (rain associated with thunderstorm(s), mist)

METAR text: RJBD 090200Z 13006KT 4500 SHRA BR FEW006 SCT012 FEW025CB BKN035 24/23 Q1009
Conditions at: RJBD (NANKISHIRAHAMA A, JP) observed 0200 UTC 09 July 2020
Temperature: 24.0°C (75°F)
Dewpoint: 23.0°C (73°F) [RH = 94%]
Pressure (altimeter): 29.79 inches Hg (1009.0 mb)
Winds: from the SE (130 degrees) at 7 MPH (6 knots; 3.1 m/s)
Visibility: 2.80 miles (4.51 km)
Ceiling: 3500 feet AGL
Clouds: few clouds at 600 feet AGL
scattered clouds at 1200 feet AGL
few clouds at 2500 feet AGL
broken clouds at 3500 feet AGL
Weather: SHRA BR  (rain showers, mist)